Time;durP1;ratioP1;P1;durP2;ratioP2;P2;SDS_P1;SDS_P2;PMS_P1;PMS_P2;Temp;Humidity;BMP_temperature;BMP_pressure;BME280_temperature;BME280_humidity;BME280_pressure;Samples;Min_cycle;Max_cycle;Signal;HPM_P1;HPM_P2
2023/05/10 00:01:58;;;;;;;3.30;3.00;;;10.10;99.90;;;;;;5013433;28;20142;-74
2023/05/10 00:04:27;;;;;;;4.70;3.10;;;10.00;99.90;;;;;;5014677;28;20042;-74
2023/05/10 00:06:53;;;;;;;3.97;3.10;;;9.90;99.90;;;;;;5014707;28;20369;-74
2023/05/10 00:09:18;;;;;;;5.60;2.70;;;9.80;99.90;;;;;;5014284;28;20390;-74
2023/05/10 00:11:44;;;;;;;4.07;3.08;;;9.80;99.90;;;;;;4997060;28;20026;-74
2023/05/10 00:14:10;;;;;;;3.17;2.88;;;9.80;99.90;;;;;;5014435;28;20101;-75
2023/05/10 00:16:35;;;;;;;3.95;2.80;;;9.80;99.90;;;;;;5014458;28;20026;-74
2023/05/10 00:19:01;;;;;;;6.65;2.70;;;9.70;99.90;;;;;;5014649;28;20022;-75
2023/05/10 00:21:28;;;;;;;4.05;2.90;;;9.70;99.90;;;;;;5014414;28;20647;-74
2023/05/10 00:23:53;;;;;;;6.25;2.75;;;9.70;99.90;;;;;;5014353;28;20026;-74
2023/05/10 00:26:20;;;;;;;3.00;2.47;;;9.60;99.90;;;;;;5014408;28;20021;-75
2023/05/10 00:28:45;;;;;;;3.53;2.53;;;9.60;99.90;;;;;;4996679;28;20037;-75
2023/05/10 00:31:11;;;;;;;2.60;2.40;;;9.60;99.90;;;;;;4995979;28;20116;-74
2023/05/10 00:33:36;;;;;;;4.63;3.15;;;9.50;99.90;;;;;;5013382;28;20040;-74
2023/05/10 00:36:02;;;;;;;5.88;3.05;;;9.50;99.90;;;;;;5014221;28;20026;-74
2023/05/10 00:38:28;;;;;;;4.45;2.97;;;9.40;99.90;;;;;;4996572;28;20459;-74
2023/05/10 00:40:54;;;;;;;3.47;2.67;;;9.50;99.90;;;;;;4996528;28;20029;-74
2023/05/10 00:43:19;;;;;;;4.47;2.58;;;9.40;99.90;;;;;;4996469;28;20413;-74
2023/05/10 00:45:45;;;;;;;3.85;2.70;;;9.40;99.90;;;;;;4975180;28;1134296;-74
2023/05/10 00:48:11;;;;;;;5.40;2.67;;;9.40;99.90;;;;;;5014950;28;20064;-74
2023/05/10 00:50:37;;;;;;;4.43;2.92;;;9.40;99.90;;;;;;5014828;28;20041;-74
2023/05/10 00:53:03;;;;;;;3.67;2.90;;;9.30;99.90;;;;;;5014913;28;20464;-74
2023/05/10 00:55:29;;;;;;;4.35;2.90;;;9.30;99.90;;;;;;5014991;28;20474;-74
2023/05/10 00:57:55;;;;;;;9.45;2.97;;;9.30;99.90;;;;;;5014398;28;20097;-75
2023/05/10 01:00:21;;;;;;;6.68;3.15;;;9.20;99.90;;;;;;5014909;28;20026;-74
2023/05/10 01:02:47;;;;;;;3.05;2.67;;;9.20;99.90;;;;;;5014577;28;20033;-75
2023/05/10 01:05:13;;;;;;;4.05;2.53;;;9.20;99.90;;;;;;4996865;28;20037;-74
2023/05/10 01:07:39;;;;;;;6.32;2.85;;;9.10;99.90;;;;;;5014516;28;20033;-74
2023/05/10 01:10:07;;;;;;;5.68;2.75;;;9.10;99.90;;;;;;5014185;28;20034;-74
2023/05/10 01:12:39;;;;;;;3.30;2.72;;;9.10;99.90;;;;;;5014393;28;20022;-74
2023/05/10 01:15:10;;;;;;;6.15;3.13;;;9.10;99.90;;;;;;4996742;28;20462;-74
2023/05/10 01:17:38;;;;;;;5.13;2.25;;;9.10;99.90;;;;;;5014444;28;20022;-74
2023/05/10 01:20:06;;;;;;;4.20;2.60;;;9.10;99.90;;;;;;4996768;28;20029;-74
2023/05/10 01:23:24;;;;;;;3.47;2.60;;;9.10;99.90;;;;;;5014265;28;20058;-74
2023/05/10 01:25:52;;;;;;;6.30;3.40;;;9.20;99.90;;;;;;4960034;28;20037;-75
2023/05/10 01:28:40;;;;;;;3.00;2.58;;;9.10;99.90;;;;;;5013881;28;20052;-74
2023/05/10 01:31:27;;;;;;;9.87;2.83;;;9.10;99.90;;;;;;5014016;28;20028;-74
2023/05/10 01:34:09;;;;;;;3.83;2.75;;;9.20;99.90;;;;;;5014162;28;20402;-74
2023/05/10 01:36:45;;;;;;;3.60;2.75;;;9.20;99.90;;;;;;5013903;28;20037;-74
2023/05/10 01:39:40;;;;;;;2.75;2.28;;;9.20;99.90;;;;;;5014162;28;20030;-74
2023/05/10 01:42:11;;;;;;;6.30;4.13;;;9.10;99.90;;;;;;5012696;28;20034;-74
2023/05/10 01:44:49;;;;;;;8.85;2.70;;;9.10;99.90;;;;;;5013480;28;20103;-74
2023/05/10 01:47:20;;;;;;;3.30;2.78;;;9.00;99.90;;;;;;5014572;28;20050;-74
2023/05/10 01:49:51;;;;;;;3.70;2.47;;;9.00;99.90;;;;;;5014265;28;20025;-74
2023/05/10 01:52:20;;;;;;;3.03;2.50;;;9.00;99.90;;;;;;5013686;28;20026;-75
2023/05/10 01:54:53;;;;;;;5.23;2.37;;;9.00;99.90;;;;;;5013947;28;20061;-74
2023/05/10 01:57:22;;;;;;;2.85;2.65;;;8.90;99.90;;;;;;4996682;28;20033;-75
2023/05/10 01:59:50;;;;;;;5.18;2.65;;;8.90;99.90;;;;;;5014147;28;20034;-74
2023/05/10 02:02:19;;;;;;;7.15;2.97;;;8.80;99.90;;;;;;5013641;28;20052;-75
2023/05/10 02:04:47;;;;;;;9.60;2.88;;;8.80;99.90;;;;;;5014095;28;20072;-75
2023/05/10 02:07:14;;;;;;;3.20;2.60;;;8.80;99.90;;;;;;4996360;28;20026;-75
2023/05/10 02:09:43;;;;;;;4.97;2.60;;;8.70;99.90;;;;;;4996687;28;20057;-74
2023/05/10 02:12:10;;;;;;;3.35;2.80;;;8.60;99.90;;;;;;4996177;28;20029;-75
2023/05/10 02:14:37;;;;;;;6.70;3.03;;;8.60;99.90;;;;;;4998009;28;20092;-74
2023/05/10 02:17:05;;;;;;;3.13;2.83;;;8.50;99.90;;;;;;5014877;28;20549;-74
2023/05/10 02:19:33;;;;;;;4.72;3.00;;;8.50;99.90;;;;;;5014638;28;20033;-75
2023/05/10 02:22:00;;;;;;;4.70;2.92;;;8.50;99.90;;;;;;5013446;28;20064;-75
2023/05/10 02:24:28;;;;;;;5.45;2.95;;;8.40;99.90;;;;;;4996059;28;20034;-75
2023/05/10 02:26:55;;;;;;;3.78;2.80;;;8.50;99.90;;;;;;5013884;28;20088;-74
2023/05/10 02:29:24;;;;;;;5.28;2.70;;;8.50;99.90;;;;;;5013613;28;20026;-74
2023/05/10 02:31:52;;;;;;;3.90;3.00;;;8.50;99.90;;;;;;4995973;28;20026;-74
2023/05/10 02:34:21;;;;;;;3.67;2.72;;;8.50;99.90;;;;;;4995990;28;20038;-75
2023/05/10 02:36:47;;;;;;;5.00;3.03;;;8.50;99.90;;;;;;5013888;28;20036;-74
2023/05/10 02:39:15;;;;;;;4.47;3.03;;;8.50;99.90;;;;;;5013233;28;20037;-74
2023/05/10 02:41:42;;;;;;;8.52;3.55;;;8.50;99.90;;;;;;4995936;28;20381;-74
2023/05/10 02:44:09;;;;;;;5.93;3.78;;;;;;;;;;4996222;28;20038;-74
2023/05/10 02:46:36;;;;;;;3.92;3.20;;;8.60;99.90;;;;;;4995660;28;20050;-74
2023/05/10 02:49:02;;;;;;;5.18;3.03;;;8.60;99.90;;;;;;4996125;28;20103;-75
2023/05/10 02:51:32;;;;;;;4.90;3.17;;;8.50;99.90;;;;;;5013425;28;20462;-75
2023/05/10 02:54:01;;;;;;;4.55;3.65;;;8.50;99.90;;;;;;4995758;28;20038;-74
2023/05/10 02:56:34;;;;;;;5.03;3.30;;;8.50;99.90;;;;;;5016854;28;20037;-74
2023/05/10 02:59:00;;;;;;;4.60;3.33;;;8.40;99.90;;;;;;5017262;28;20034;-74
2023/05/10 03:01:25;;;;;;;9.90;3.58;;;8.40;99.90;;;;;;5016810;28;20509;-74
2023/05/10 03:03:51;;;;;;;7.15;4.68;;;8.40;99.90;;;;;;4999171;28;20030;-75
2023/05/10 03:06:17;;;;;;;4.78;3.38;;;8.40;99.90;;;;;;5015561;28;20072;-74
2023/05/10 03:08:44;;;;;;;5.32;3.10;;;8.30;99.90;;;;;;5016703;28;20485;-74
2023/05/10 03:11:21;;;;;;;4.15;3.40;;;8.30;99.90;;;;;;5016362;28;20470;-75
2023/05/10 03:14:16;;;;;;;5.72;3.55;;;8.30;99.90;;;;;;5016694;28;20203;-74
2023/05/10 03:16:48;;;;;;;6.82;3.60;;;8.20;99.90;;;;;;4998969;28;20429;-74
2023/05/10 03:19:43;;;;;;;4.90;3.08;;;8.20;99.90;;;;;;5016181;28;20029;-75
2023/05/10 03:22:11;;;;;;;5.82;3.90;;;8.20;99.90;;;;;;4990127;28;20393;-75
2023/05/10 03:24:41;;;;;;;4.80;3.53;;;8.20;99.90;;;;;;4998923;28;20073;-75
2023/05/10 03:27:08;;;;;;;4.32;3.92;;;8.20;99.90;;;;;;5016606;28;20103;-74
2023/05/10 03:29:34;;;;;;;7.47;3.92;;;8.20;99.90;;;;;;4998671;28;20095;-75
2023/05/10 03:32:00;;;;;;;8.98;3.58;;;8.20;99.90;;;;;;4998621;28;20021;-74
2023/05/10 03:34:26;;;;;;;6.32;3.63;;;8.20;99.90;;;;;;5016102;28;20164;-75
2023/05/10 03:36:52;;;;;;;7.95;3.88;;;8.20;99.90;;;;;;4998937;28;20026;-75
2023/05/10 03:39:18;;;;;;;5.18;3.40;;;8.10;99.90;;;;;;5016112;28;20034;-75
2023/05/10 03:41:44;;;;;;;7.70;3.83;;;8.10;99.90;;;;;;5016019;28;20026;-75
2023/05/10 03:44:09;;;;;;;5.43;3.70;;;8.10;99.90;;;;;;5014723;28;20382;-74
2023/05/10 03:46:35;;;;;;;7.18;3.92;;;8.10;99.90;;;;;;4998028;28;20049;-74
2023/05/10 03:49:01;;;;;;;6.38;3.50;;;8.20;99.90;;;;;;4998093;28;20030;-75
2023/05/10 03:51:28;;;;;;;13.75;4.07;;;8.20;99.90;;;;;;5014786;28;20037;-75
2023/05/10 03:53:54;;;;;;;6.60;4.20;;;8.20;99.90;;;;;;5015729;28;20061;-75
2023/05/10 03:56:20;;;;;;;9.27;3.97;;;8.20;99.90;;;;;;5015753;28;20045;-75
2023/05/10 03:58:46;;;;;;;7.32;4.15;;;8.10;99.90;;;;;;5015665;28;20018;-74
2023/05/10 04:01:12;;;;;;;6.53;3.67;;;8.20;99.90;;;;;;5015916;28;20490;-74
2023/05/10 04:03:38;;;;;;;9.38;3.95;;;8.20;99.90;;;;;;4998036;28;20029;-75
2023/05/10 04:06:04;;;;;;;6.55;3.85;;;8.20;99.90;;;;;;4997005;28;20079;-75
2023/05/10 04:08:30;;;;;;;7.00;4.60;;;8.30;99.90;;;;;;4997976;28;20121;-74
2023/05/10 04:11:06;;;;;;;5.63;3.90;;;8.30;99.90;;;;;;4998351;28;20057;-74
2023/05/10 04:13:32;;;;;;;5.28;3.75;;;8.30;99.90;;;;;;5015503;28;20030;-73
2023/05/10 04:15:57;;;;;;;12.60;3.85;;;8.40;99.90;;;;;;4998202;28;20083;-74
2023/05/10 04:18:23;;;;;;;8.40;4.72;;;8.40;99.90;;;;;;4997767;28;20022;-74
2023/05/10 04:20:49;;;;;;;4.85;3.97;;;8.40;99.90;;;;;;4998286;28;20029;-75
2023/05/10 04:23:16;;;;;;;7.35;5.38;;;8.50;99.90;;;;;;5015921;28;20029;-75
2023/05/10 04:25:42;;;;;;;13.65;4.18;;;8.50;99.90;;;;;;5015266;28;20462;-74
2023/05/10 04:28:08;;;;;;;6.57;4.07;;;8.60;99.90;;;;;;5015393;28;20448;-74
2023/05/10 04:30:34;;;;;;;7.28;4.47;;;8.70;99.90;;;;;;5014058;28;20100;-74
2023/05/10 04:33:01;;;;;;;7.38;4.57;;;8.70;99.90;;;;;;5015076;28;20033;-74
2023/05/10 04:35:27;;;;;;;4.65;3.83;;;8.80;99.90;;;;;;5015072;28;20034;-75
2023/05/10 04:37:53;;;;;;;6.95;4.25;;;8.90;99.90;;;;;;4997381;28;20033;-74
2023/05/10 04:40:19;;;;;;;6.57;3.92;;;8.90;99.90;;;;;;5014794;28;20539;-74
2023/05/10 04:42:45;;;;;;;7.75;3.95;;;9.00;99.90;;;;;;5014683;28;20033;-74
2023/05/10 04:45:11;;;;;;;6.50;4.05;;;9.10;99.90;;;;;;4996959;28;20068;-74
2023/05/10 04:47:37;;;;;;;8.57;3.92;;;9.10;99.90;;;;;;5014602;28;20030;-74
2023/05/10 04:50:03;;;;;;;6.43;4.10;;;9.20;99.90;;;;;;4997758;28;20026;-74
2023/05/10 04:52:29;;;;;;;7.20;3.97;;;9.20;99.90;;;;;;4997377;28;20030;-74
2023/05/10 04:54:55;;;;;;;9.27;3.83;;;9.30;99.90;;;;;;5014923;28;20033;-74
2023/05/10 04:57:21;;;;;;;5.65;3.95;;;9.30;99.90;;;;;;4997097;28;20501;-74
2023/05/10 04:59:46;;;;;;;8.13;3.80;;;9.40;99.90;;;;;;5014724;28;20041;-74
2023/05/10 05:02:12;;;;;;;7.53;4.45;;;9.50;99.90;;;;;;5013341;28;20022;-74
2023/05/10 05:04:37;;;;;;;4.20;3.55;;;9.60;99.90;;;;;;4997038;28;20034;-74
2023/05/10 05:07:03;;;;;;;9.43;3.88;;;9.70;99.90;;;;;;4996934;28;20033;-74
2023/05/10 05:09:29;;;;;;;9.32;4.10;;;9.70;99.90;;;;;;5015289;28;20033;-74
2023/05/10 05:11:54;;;;;;;7.72;3.92;;;9.80;99.90;;;;;;4996933;28;20022;-74
2023/05/10 05:14:24;;;;;;;6.35;3.70;;;9.90;99.90;;;;;;4996920;28;20030;-74
2023/05/10 05:16:53;;;;;;;4.93;3.65;;;10.00;99.90;;;;;;5014359;28;20029;-74
2023/05/10 05:19:19;;;;;;;4.70;3.80;;;10.10;99.90;;;;;;5014379;28;20029;-73
2023/05/10 05:21:45;;;;;;;5.57;3.90;;;10.20;99.90;;;;;;5014112;28;20030;-74
2023/05/10 05:24:12;;;;;;;6.65;3.90;;;10.30;99.90;;;;;;5013151;28;20437;-74
2023/05/10 05:26:38;;;;;;;5.95;3.95;;;10.40;99.90;;;;;;4997030;28;20112;-74
2023/05/10 05:29:04;;;;;;;6.57;4.13;;;10.60;99.90;;;;;;5014745;28;20497;-75
2023/05/10 05:31:30;;;;;;;8.07;4.22;;;10.70;99.90;;;;;;5015782;28;20057;-74
2023/05/10 05:33:56;;;;;;;4.38;3.63;;;10.80;99.90;;;;;;4998552;28;20430;-74
2023/05/10 05:36:21;;;;;;;5.03;3.50;;;10.90;99.90;;;;;;5016166;28;20454;-74
2023/05/10 05:38:47;;;;;;;5.40;4.20;;;11.00;99.90;;;;;;5016063;28;20026;-74
2023/05/10 05:41:13;;;;;;;6.93;3.88;;;11.10;99.90;;;;;;4996949;28;20026;-74
2023/05/10 05:43:39;;;;;;;5.15;4.07;;;11.20;99.90;;;;;;5013968;28;20029;-74
2023/05/10 05:46:05;;;;;;;4.07;3.67;;;11.40;99.90;;;;;;4996249;28;20049;-74
2023/05/10 05:48:30;;;;;;;8.05;3.47;;;11.50;99.90;;;;;;5013666;28;20026;-74
2023/05/10 05:50:57;;;;;;;7.38;4.05;;;11.60;99.90;;;;;;5013976;28;20057;-74
2023/05/10 05:53:23;;;;;;;3.67;3.33;;;12.00;99.90;;;;;;4996263;28;20033;-74
2023/05/10 05:55:55;;;;;;;4.90;3.97;;;12.40;99.90;;;;;;5013915;28;20044;-74
2023/05/10 05:58:22;;;;;;;9.05;4.03;;;12.70;99.90;;;;;;4996337;28;20026;-74
2023/05/10 06:00:47;;;;;;;3.83;3.30;;;13.20;99.90;;;;;;5013776;28;20030;-74
2023/05/10 06:03:13;;;;;;;4.88;3.70;;;13.60;99.90;;;;;;5013698;28;20026;-73
2023/05/10 06:05:39;;;;;;;6.40;3.50;;;13.80;99.90;;;;;;4996245;28;20125;-73
2023/05/10 06:08:05;;;;;;;4.55;3.42;;;14.20;99.90;;;;;;5012232;28;20061;-73
2023/05/10 06:10:30;;;;;;;5.47;3.45;;;14.60;99.90;;;;;;4996015;28;20065;-74
2023/05/10 06:12:56;;;;;;;7.38;3.65;;;15.10;99.90;;;;;;5013390;28;20080;-73
2023/05/10 06:15:22;;;;;;;3.75;2.85;;;15.50;99.90;;;;;;4995983;28;20070;-73
2023/05/10 06:17:49;;;;;;;6.25;3.42;;;15.50;99.90;;;;;;4995971;28;20029;-73
2023/05/10 06:20:15;;;;;;;4.43;3.13;;;15.60;98.90;;;;;;5013021;28;20358;-73
2023/05/10 06:22:41;;;;;;;5.30;2.97;;;15.80;98.60;;;;;;5013572;28;20022;-74
2023/05/10 06:25:07;;;;;;;5.63;2.90;;;16.00;98.00;;;;;;4995978;28;20030;-73
2023/05/10 06:27:33;;;;;;;3.90;2.90;;;15.80;96.90;;;;;;5013642;28;20413;-73
2023/05/10 06:29:59;;;;;;;3.92;2.67;;;15.90;97.10;;;;;;5013794;28;20080;-73
2023/05/10 06:32:24;;;;;;;5.10;2.65;;;16.20;95.70;;;;;;5017007;28;20508;-73
2023/05/10 06:34:50;;;;;;;3.08;2.50;;;16.40;94.10;;;;;;5016802;28;20109;-73
2023/05/10 06:37:16;;;;;;;4.40;2.78;;;16.50;92.80;;;;;;5017384;28;20073;-73
2023/05/10 06:39:42;;;;;;;6.18;2.78;;;16.40;91.10;;;;;;4999210;28;20039;-73
2023/05/10 06:42:08;;;;;;;2.78;2.47;;;16.50;90.70;;;;;;5016767;28;20034;-73
2023/05/10 06:44:33;;;;;;;4.78;2.60;;;16.80;88.80;;;;;;5017024;28;20037;-73
2023/05/10 06:46:59;;;;;;;6.65;3.20;;;16.90;86.60;;;;;;4998929;28;20180;-73
2023/05/10 06:49:24;;;;;;;3.80;2.50;;;17.10;85.70;;;;;;5017289;28;20026;-73
2023/05/10 06:51:50;;;;;;;3.13;2.50;;;17.30;84.80;;;;;;5016945;28;20058;-73
2023/05/10 06:54:16;;;;;;;3.90;2.70;;;17.30;84.00;;;;;;5016777;28;20026;-73
2023/05/10 06:56:42;;;;;;;7.60;2.53;;;17.00;85.30;;;;;;4999182;28;20492;-73
2023/05/10 06:59:07;;;;;;;2.83;2.55;;;16.90;86.60;;;;;;5015481;28;20058;-73
2023/05/10 07:01:33;;;;;;;5.15;2.60;;;17.10;85.60;;;;;;5016726;28;20045;-73
2023/05/10 07:03:58;;;;;;;2.83;2.53;;;17.30;85.40;;;;;;5016738;28;20061;-73
2023/05/10 07:06:24;;;;;;;2.35;2.15;;;17.50;84.50;;;;;;5015734;28;20027;-74
2023/05/10 07:08:50;;;;;;;2.78;2.53;;;17.60;83.50;;;;;;5016322;28;20033;-74
2023/05/10 07:11:15;;;;;;;6.22;3.08;;;17.80;82.90;;;;;;5016872;28;20084;-74
2023/05/10 07:13:43;;;;;;;6.85;2.80;;;18.10;80.30;;;;;;5016466;28;20458;-73
2023/05/10 07:16:09;;;;;;;2.92;2.58;;;18.00;78.40;;;;;;5015160;28;20026;-74
2023/05/10 07:18:35;;;;;;;3.08;2.60;;;17.60;78.10;;;;;;5016161;28;20056;-74
2023/05/10 07:21:01;;;;;;;2.72;2.45;;;18.00;77.90;;;;;;4999207;28;20061;-74
2023/05/10 07:23:27;;;;;;;3.53;2.20;;;18.20;76.40;;;;;;5016533;28;20032;-74
2023/05/10 07:25:53;;;;;;;5.68;2.20;;;18.40;74.60;;;;;;5016276;28;20101;-74
2023/05/10 07:28:19;;;;;;;2.05;1.90;;;18.50;72.00;;;;;;4998661;28;20030;-74
2023/05/10 07:30:45;;;;;;;5.88;2.13;;;18.60;72.10;;;;;;4998475;28;20026;-74
2023/05/10 07:33:12;;;;;;;2.67;1.65;;;18.00;70.40;;;;;;5015985;28;20421;-74
2023/05/10 07:35:38;;;;;;;5.07;2.92;;;18.40;72.30;;;;;;5016198;28;20046;-74
2023/05/10 07:38:04;;;;;;;3.80;2.13;;;18.80;71.90;;;;;;5016108;28;20028;-74
2023/05/10 07:40:30;;;;;;;6.30;2.10;;;19.30;70.30;;;;;;4998372;28;20030;-74
2023/05/10 07:42:56;;;;;;;3.03;2.33;;;19.70;67.50;;;;;;5016040;28;20026;-74
2023/05/10 07:45:22;;;;;;;4.35;2.35;;;19.60;66.20;;;;;;5015487;28;20042;-74
2023/05/10 07:47:47;;;;;;;3.03;2.03;;;19.20;66.90;;;;;;5015678;28;20033;-74
2023/05/10 07:50:13;;;;;;;4.72;2.60;;;19.30;65.80;;;;;;4998444;28;20117;-74
2023/05/10 07:52:39;;;;;;;3.70;1.98;;;19.00;66.70;;;;;;5016039;28;20160;-74
2023/05/10 07:55:07;;;;;;;3.88;2.22;;;19.00;67.20;;;;;;5015703;28;20517;-74
2023/05/10 07:57:36;;;;;;;5.72;2.35;;;18.70;66.90;;;;;;5015416;28;20390;-74
2023/05/10 08:00:02;;;;;;;2.58;1.98;;;18.70;67.80;;;;;;4998004;28;20026;-74
2023/05/10 08:02:28;;;;;;;2.05;1.83;;;19.20;67.10;;;;;;4997958;28;20026;-74
2023/05/10 08:04:53;;;;;;;3.97;2.00;;;18.90;66.20;;;;;;4998145;28;20036;-74
2023/05/10 08:07:19;;;;;;;2.50;2.05;;;18.60;67.70;;;;;;5013875;28;20029;-74
2023/05/10 08:09:45;;;;;;;1.83;1.60;;;18.10;67.00;;;;;;5015483;28;20101;-74
2023/05/10 08:12:10;;;;;;;2.85;2.40;;;18.20;69.40;;;;;;4997931;28;20032;-74
2023/05/10 08:14:38;;;;;;;2.90;2.60;;;18.00;72.60;;;;;;5015002;28;20033;-74
2023/05/10 08:17:04;;;;;;;6.13;2.20;;;17.80;74.50;;;;;;5015473;28;20034;-74
2023/05/10 08:19:30;;;;;;;5.20;2.88;;;17.80;74.30;;;;;;5015298;28;20307;-73
2023/05/10 08:21:56;;;;;;;4.18;2.60;;;17.70;74.80;;;;;;5015279;28;20462;-74
2023/05/10 08:24:22;;;;;;;2.90;2.00;;;17.90;75.60;;;;;;5015195;28;20112;-74
2023/05/10 08:26:47;;;;;;;5.65;2.50;;;18.50;76.00;;;;;;5015178;28;20033;-74
2023/05/10 08:29:14;;;;;;;4.13;2.70;;;18.70;74.50;;;;;;4997426;28;20026;-74
2023/05/10 08:31:39;;;;;;;6.45;2.55;;;19.00;73.50;;;;;;5015071;28;20026;-74
2023/05/10 08:34:05;;;;;;;5.32;2.38;;;19.00;73.40;;;;;;5014136;28;20473;-74
2023/05/10 08:36:31;;;;;;;7.40;2.45;;;18.70;73.20;;;;;;5015019;28;20485;-74
2023/05/10 08:38:58;;;;;;;5.50;2.35;;;18.80;74.20;;;;;;5014887;28;20084;-73
2023/05/10 08:41:25;;;;;;;4.80;2.80;;;18.30;75.30;;;;;;4997320;28;20030;-74
2023/05/10 08:43:53;;;;;;;3.70;3.17;;;18.40;76.10;;;;;;4997095;28;20040;-73
2023/05/10 08:46:20;;;;;;;7.20;2.60;;;18.40;74.40;;;;;;4996786;28;20050;-74
2023/05/10 08:48:48;;;;;;;3.63;2.20;;;18.30;73.60;;;;;;5014381;28;20037;-74
2023/05/10 08:51:20;;;;;;;2.50;2.05;;;17.90;73.30;;;;;;5014779;28;20030;-73
2023/05/10 08:53:46;;;;;;;2.10;1.83;;;17.80;72.60;;;;;;5014244;28;20076;-73
2023/05/10 08:56:12;;;;;;;7.07;2.00;;;18.10;72.00;;;;;;5014708;28;20033;-73
2023/05/10 08:58:39;;;;;;;4.07;1.70;;;18.50;70.70;;;;;;5014448;28;20109;-73
2023/05/10 09:01:05;;;;;;;3.25;2.10;;;18.40;70.20;;;;;;4996653;28;20033;-74
2023/05/10 09:03:32;;;;;;;2.35;1.73;;;18.30;69.20;;;;;;5014704;28;20029;-74
2023/05/10 09:05:58;;;;;;;3.95;2.00;;;18.70;69.60;;;;;;5014624;28;20454;-74
2023/05/10 09:08:25;;;;;;;4.93;2.08;;;19.10;69.40;;;;;;5014510;28;20084;-74
2023/05/10 09:10:51;;;;;;;2.17;1.98;;;19.30;69.50;;;;;;4996915;28;20026;-74
2023/05/10 09:13:19;;;;;;;3.50;2.10;;;19.50;69.50;;;;;;4996704;28;20129;-74
2023/05/10 09:15:45;;;;;;;3.10;1.75;;;19.70;67.20;;;;;;5014354;28;20030;-74
2023/05/10 09:18:11;;;;;;;9.32;2.30;;;20.40;66.40;;;;;;4996767;28;20041;-74
2023/05/10 09:20:37;;;;;;;2.55;2.10;;;20.80;63.20;;;;;;5014637;28;20045;-74
2023/05/10 09:23:03;;;;;;;2.50;2.22;;;21.30;62.70;;;;;;5014524;28;20030;-74
2023/05/10 09:25:28;;;;;;;6.50;2.40;;;20.70;60.30;;;;;;4996591;28;20438;-74
2023/05/10 09:27:55;;;;;;;9.00;1.95;;;20.30;62.20;;;;;;5014110;28;20379;-75
2023/05/10 09:30:25;;;;;;;4.55;2.20;;;20.50;63.20;;;;;;4996497;28;20382;-74
2023/05/10 09:32:51;;;;;;;3.78;1.75;;;20.50;60.70;;;;;;5013902;28;20076;-73
2023/05/10 09:35:22;;;;;;;3.80;1.80;;;20.60;61.80;;;;;;5014032;28;20044;-73
2023/05/10 09:37:56;;;;;;;4.85;1.83;;;19.70;63.10;;;;;;4996451;28;20034;-74
2023/05/10 09:40:24;;;;;;;3.67;1.88;;;20.70;62.40;;;;;;5014069;28;20454;-73
2023/05/10 09:42:59;;;;;;;4.00;1.80;;;21.20;60.80;;;;;;5013984;28;20018;-73
2023/05/10 09:45:27;;;;;;;3.97;1.77;;;21.80;60.80;;;;;;5013666;28;20104;-73
2023/05/10 09:47:53;;;;;;;2.63;1.60;;;21.60;60.10;;;;;;5014148;28;20114;-74
2023/05/10 09:50:20;;;;;;;5.32;1.83;;;22.10;59.40;;;;;;5012743;28;20442;-74
2023/05/10 09:52:54;;;;;;;4.10;1.38;;;21.30;60.60;;;;;;4996343;28;20378;-74
2023/05/10 09:55:25;;;;;;;3.22;1.38;;;21.10;62.10;;;;;;4996230;28;20026;-74
2023/05/10 09:58:00;;;;;;;1.38;1.27;;;21.10;61.70;;;;;;4996267;28;20041;-74
2023/05/10 10:00:27;;;;;;;8.77;1.20;;;21.10;60.90;;;;;;5013480;28;20493;-74
2023/05/10 10:02:58;;;;;;;3.47;1.50;;;21.10;59.80;;;;;;4996685;28;20030;-74
2023/05/10 10:05:34;;;;;;;1.20;1.00;;;21.60;59.00;;;;;;4998489;28;20117;-74
2023/05/10 10:08:03;;;;;;;3.20;1.02;;;22.20;58.50;;;;;;5018158;28;20022;-74
2023/05/10 10:10:30;;;;;;;7.30;1.35;;;22.40;55.50;;;;;;5017698;28;20022;-73
2023/05/10 10:12:56;;;;;;;1.38;1.10;;;22.10;54.40;;;;;;5017736;28;20046;-73
2023/05/10 10:15:22;;;;;;;4.88;1.30;;;21.60;54.70;;;;;;5017537;28;20072;-74
2023/05/10 10:17:49;;;;;;;5.55;1.17;;;21.90;53.10;;;;;;5017251;28;20479;-73
2023/05/10 10:20:15;;;;;;;2.42;1.38;;;22.40;53.20;;;;;;5017661;28;20021;-73
2023/05/10 10:22:41;;;;;;;3.28;1.00;;;22.80;52.00;;;;;;4999822;28;20033;-73
2023/05/10 10:25:08;;;;;;;4.30;1.35;;;22.80;52.20;;;;;;5017382;28;20026;-73
2023/05/10 10:27:39;;;;;;;1.50;0.80;;;23.50;51.90;;;;;;5017336;28;20026;-73
2023/05/10 10:30:22;;;;;;;3.13;0.90;;;22.80;51.30;;;;;;5017632;28;20053;-73
2023/05/10 10:33:02;;;;;;;2.58;0.85;;;22.70;50.80;;;;;;5017638;28;20033;-73
2023/05/10 10:35:30;;;;;;;2.67;0.77;;;21.70;51.60;;;;;;4999274;28;20096;-73
2023/05/10 10:37:56;;;;;;;1.15;0.93;;;21.70;52.10;;;;;;4999911;28;20381;-74
2023/05/10 10:40:30;;;;;;;1.00;0.90;;;22.40;52.90;;;;;;5017554;28;20036;-74
2023/05/10 10:42:56;;;;;;;2.53;1.02;;;22.80;50.60;;;;;;5017111;28;20033;-73
2023/05/10 10:45:23;;;;;;;3.40;0.80;;;22.60;50.60;;;;;;5017026;28;20041;-73
2023/05/10 10:47:54;;;;;;;2.47;0.63;;;22.20;50.70;;;;;;4999537;28;20034;-73
2023/05/10 10:50:20;;;;;;;1.15;1.05;;;22.00;51.10;;;;;;4999371;28;20025;-73
2023/05/10 10:52:46;;;;;;;0.95;0.95;;;22.10;50.20;;;;;;5016904;28;20389;-73
2023/05/10 10:55:12;;;;;;;3.90;0.88;;;22.10;49.10;;;;;;5016735;28;20034;-73
2023/05/10 10:57:41;;;;;;;1.77;0.80;;;22.50;49.40;;;;;;4999244;28;20030;-73
2023/05/10 11:00:27;;;;;;;0.88;0.82;;;22.50;48.90;;;;;;5017124;28;20097;-73
2023/05/10 11:02:55;;;;;;;4.32;0.60;;;22.50;49.20;;;;;;4999667;28;20120;-74
2023/05/10 11:05:25;;;;;;;0.85;0.82;;;23.20;48.60;;;;;;4999261;28;20056;-73
2023/05/10 11:07:58;;;;;;;1.63;0.80;;;23.90;48.20;;;;;;4999540;28;20030;-73
2023/05/10 11:10:25;;;;;;;0.75;0.70;;;23.70;47.40;;;;;;4998989;28;20458;-74
2023/05/10 11:13:01;;;;;;;1.85;0.88;;;23.90;46.80;;;;;;4998852;28;20026;-73
2023/05/10 11:15:31;;;;;;;0.82;0.82;;;22.60;48.90;;;;;;4998710;28;20038;-73
2023/05/10 11:17:56;;;;;;;3.28;0.80;;;22.30;49.50;;;;;;5016954;28;20037;-73
2023/05/10 11:20:24;;;;;;;3.45;0.95;;;22.40;49.60;;;;;;5016781;28;20022;-74
2023/05/10 11:22:53;;;;;;;1.00;0.88;;;22.50;49.20;;;;;;4999434;28;20026;-74
2023/05/10 11:25:20;;;;;;;1.85;0.80;;;23.50;49.40;;;;;;5014989;28;20022;-73
2023/05/10 11:27:47;;;;;;;1.00;0.90;;;24.00;47.80;;;;;;5016530;28;20026;-73
2023/05/10 11:30:14;;;;;;;4.28;0.98;;;23.90;47.90;;;;;;5016322;28;20062;-74
2023/05/10 11:32:40;;;;;;;1.25;1.00;;;24.00;48.80;;;;;;5016010;28;20381;-73
2023/05/10 11:35:11;;;;;;;2.50;0.80;;;23.30;49.50;;;;;;5016041;28;20034;-73
2023/05/10 11:37:41;;;;;;;1.27;0.90;;;22.50;49.80;;;;;;4998505;28;20080;-73
2023/05/10 11:40:09;;;;;;;0.70;0.70;;;22.60;50.50;;;;;;5015998;28;20109;-72
2023/05/10 11:42:39;;;;;;;2.63;0.80;;;23.00;50.40;;;;;;5015931;28;20099;-72
2023/05/10 11:45:06;;;;;;;14.00;1.52;;;23.40;50.40;;;;;;5015522;28;20034;-72
2023/05/10 11:47:31;;;;;;;4.57;0.82;;;24.00;49.40;;;;;;5016247;28;20034;-73
2023/05/10 11:49:57;;;;;;;2.25;0.77;;;23.40;49.40;;;;;;5015738;28;20378;-73
2023/05/10 11:52:23;;;;;;;1.10;0.90;;;23.40;48.00;;;;;;5015813;28;20505;-72
2023/05/10 11:54:53;;;;;;;1.30;0.60;;;23.50;48.30;;;;;;5015369;28;20048;-72
2023/05/10 11:57:20;;;;;;;0.90;0.90;;;23.00;47.40;;;;;;5015774;28;20029;-72
2023/05/10 11:59:46;;;;;;;2.05;0.95;;;23.50;48.50;;;;;;5015333;28;20026;-73
2023/05/10 12:02:13;;;;;;;4.78;0.90;;;23.00;47.40;;;;;;5015637;28;20022;-73
2023/05/10 12:04:40;;;;;;;0.80;0.55;;;23.50;47.60;;;;;;5015515;28;20030;-72
2023/05/10 12:07:05;;;;;;;3.00;1.20;;;23.30;48.00;;;;;;4998090;28;20026;-72
2023/05/10 12:09:31;;;;;;;0.70;0.70;;;23.30;48.00;;;;;;4997543;28;20366;-72
2023/05/10 12:11:57;;;;;;;1.10;1.00;;;23.00;49.00;;;;;;5014206;28;20121;-72
2023/05/10 12:14:24;;;;;;;1.42;0.57;;;23.20;48.60;;;;;;5015532;28;20084;-72
2023/05/10 12:16:50;;;;;;;4.00;1.00;;;23.00;49.40;;;;;;5015767;28;20030;-65
2023/05/10 12:19:20;;;;;;;1.38;0.88;;;23.60;54.60;;;;;;4998178;28;20433;-65
2023/05/10 12:21:45;;;;;;;2.22;0.60;;;23.00;50.10;;;;;;5015200;28;20025;-74
2023/05/10 12:24:12;;;;;;;0.80;0.60;;;22.20;49.70;;;;;;5015172;28;20030;-73
2023/05/10 12:26:38;;;;;;;3.00;0.70;;;23.40;49.10;;;;;;4997529;28;20053;-74
2023/05/10 12:29:13;;;;;;;0.60;0.60;;;22.90;48.50;;;;;;5014808;28;20120;-74
2023/05/10 12:31:56;;;;;;;0.73;0.60;;;23.20;48.10;;;;;;5014783;28;20022;-74
2023/05/10 12:34:38;;;;;;;2.17;0.70;;;23.60;46.90;;;;;;4997368;28;20521;-74
2023/05/10 12:37:04;;;;;;;2.00;0.70;;;23.40;47.40;;;;;;5015023;28;20041;-74
2023/05/10 12:39:44;;;;;;;3.30;0.50;;;23.00;48.30;;;;;;4997236;28;20032;-74
2023/05/10 12:42:10;;;;;;;0.80;0.70;;;22.20;48.40;;;;;;4997240;28;20458;-74
2023/05/10 12:44:36;;;;;;;0.55;0.55;;;21.60;50.10;;;;;;5014760;28;20084;-74
2023/05/10 12:47:02;;;;;;;6.60;0.40;;;21.00;49.90;;;;;;4997193;28;20050;-74
2023/05/10 12:49:28;;;;;;;0.90;0.55;;;21.00;50.70;;;;;;5014800;28;20100;-75
2023/05/10 12:51:53;;;;;;;0.88;0.52;;;21.00;50.50;;;;;;5014556;28;20100;-74
2023/05/10 12:54:19;;;;;;;1.48;0.52;;;21.20;49.50;;;;;;5014426;28;20066;-74